sensor_id;sensor_type;location;lat;lon;timestamp;P1;durP1;ratioP1;P2;durP2;ratioP2
20865;SDS011;10593;48.398;10.698;2023-04-25T00:01:17;1.50;;;1.40;;
20865;SDS011;10593;48.398;10.698;2023-04-25T00:03:43;1.67;;;1.57;;
20865;SDS011;10593;48.398;10.698;2023-04-25T00:06:12;1.77;;;1.67;;
20865;SDS011;10593;48.398;10.698;2023-04-25T00:08:39;1.53;;;1.43;;
20865;SDS011;10593;48.398;10.698;2023-04-25T00:11:05;2.07;;;1.30;;
20865;SDS011;10593;48.398;10.698;2023-04-25T00:13:31;1.43;;;1.37;;
20865;SDS011;10593;48.398;10.698;2023-04-25T00:15:56;1.30;;;1.20;;
20865;SDS011;10593;48.398;10.698;2023-04-25T00:18:23;1.70;;;1.60;;
20865;SDS011;10593;48.398;10.698;2023-04-25T00:20:49;1.40;;;1.30;;
20865;SDS011;10593;48.398;10.698;2023-04-25T00:23:15;1.63;;;1.53;;
20865;SDS011;10593;48.398;10.698;2023-04-25T00:25:44;1.20;;;1.20;;
20865;SDS011;10593;48.398;10.698;2023-04-25T00:28:12;1.70;;;1.60;;
20865;SDS011;10593;48.398;10.698;2023-04-25T00:30:38;1.47;;;1.40;;
20865;SDS011;10593;48.398;10.698;2023-04-25T00:33:05;1.87;;;1.77;;
20865;SDS011;10593;48.398;10.698;2023-04-25T00:35:31;1.60;;;1.50;;
20865;SDS011;10593;48.398;10.698;2023-04-25T00:37:57;1.60;;;1.50;;
20865;SDS011;10593;48.398;10.698;2023-04-25T00:40:23;1.50;;;1.40;;
20865;SDS011;10593;48.398;10.698;2023-04-25T00:42:49;1.47;;;1.37;;
20865;SDS011;10593;48.398;10.698;2023-04-25T00:45:16;1.80;;;1.70;;
20865;SDS011;10593;48.398;10.698;2023-04-25T00:47:43;1.67;;;1.57;;
20865;SDS011;10593;48.398;10.698;2023-04-25T00:50:09;1.50;;;1.50;;
20865;SDS011;10593;48.398;10.698;2023-04-25T00:52:37;1.50;;;1.40;;
20865;SDS011;10593;48.398;10.698;2023-04-25T00:55:06;1.50;;;1.40;;
20865;SDS011;10593;48.398;10.698;2023-04-25T00:57:33;1.70;;;1.60;;
20865;SDS011;10593;48.398;10.698;2023-04-25T00:59:59;1.70;;;1.60;;
20865;SDS011;10593;48.398;10.698;2023-04-25T01:02:26;1.90;;;1.50;;
20865;SDS011;10593;48.398;10.698;2023-04-25T01:04:52;1.53;;;1.40;;
20865;SDS011;10593;48.398;10.698;2023-04-25T01:07:18;1.60;;;1.50;;
20865;SDS011;10593;48.398;10.698;2023-04-25T01:09:44;1.33;;;1.27;;
20865;SDS011;10593;48.398;10.698;2023-04-25T01:12:11;1.30;;;1.27;;
20865;SDS011;10593;48.398;10.698;2023-04-25T01:14:37;1.40;;;1.30;;
20865;SDS011;10593;48.398;10.698;2023-04-25T01:17:03;1.70;;;1.60;;
20865;SDS011;10593;48.398;10.698;2023-04-25T01:19:29;2.73;;;1.13;;
20865;SDS011;10593;48.398;10.698;2023-04-25T01:21:55;1.60;;;1.50;;
20865;SDS011;10593;48.398;10.698;2023-04-25T01:24:21;1.63;;;1.53;;
20865;SDS011;10593;48.398;10.698;2023-04-25T01:26:47;1.50;;;1.40;;
20865;SDS011;10593;48.398;10.698;2023-04-25T01:29:18;1.50;;;1.40;;
20865;SDS011;10593;48.398;10.698;2023-04-25T01:31:45;1.67;;;1.57;;
20865;SDS011;10593;48.398;10.698;2023-04-25T01:34:14;1.93;;;1.83;;
20865;SDS011;10593;48.398;10.698;2023-04-25T01:36:40;1.53;;;1.43;;
20865;SDS011;10593;48.398;10.698;2023-04-25T01:39:06;1.97;;;1.70;;
20865;SDS011;10593;48.398;10.698;2023-04-25T01:41:35;1.80;;;1.60;;
20865;SDS011;10593;48.398;10.698;2023-04-25T01:44:01;2.00;;;1.90;;
20865;SDS011;10593;48.398;10.698;2023-04-25T01:46:28;1.93;;;1.60;;
20865;SDS011;10593;48.398;10.698;2023-04-25T01:48:55;1.90;;;1.80;;
20865;SDS011;10593;48.398;10.698;2023-04-25T01:51:21;1.90;;;1.80;;
20865;SDS011;10593;48.398;10.698;2023-04-25T01:53:46;1.40;;;1.40;;
20865;SDS011;10593;48.398;10.698;2023-04-25T01:56:12;1.53;;;1.43;;
20865;SDS011;10593;48.398;10.698;2023-04-25T01:58:38;1.53;;;1.43;;
20865;SDS011;10593;48.398;10.698;2023-04-25T02:01:03;2.00;;;1.30;;
20865;SDS011;10593;48.398;10.698;2023-04-25T02:03:30;1.70;;;1.60;;
20865;SDS011;10593;48.398;10.698;2023-04-25T02:05:57;1.53;;;1.43;;
20865;SDS011;10593;48.398;10.698;2023-04-25T02:08:22;2.03;;;1.50;;
20865;SDS011;10593;48.398;10.698;2023-04-25T02:10:50;1.63;;;1.53;;
20865;SDS011;10593;48.398;10.698;2023-04-25T02:13:16;1.73;;;1.63;;
20865;SDS011;10593;48.398;10.698;2023-04-25T02:15:42;1.80;;;1.70;;
20865;SDS011;10593;48.398;10.698;2023-04-25T02:18:07;1.83;;;1.73;;
20865;SDS011;10593;48.398;10.698;2023-04-25T02:20:35;1.33;;;1.23;;
20865;SDS011;10593;48.398;10.698;2023-04-25T02:23:01;1.87;;;1.73;;
20865;SDS011;10593;48.398;10.698;2023-04-25T02:25:28;1.73;;;1.63;;
20865;SDS011;10593;48.398;10.698;2023-04-25T02:27:54;1.97;;;1.87;;
20865;SDS011;10593;48.398;10.698;2023-04-25T02:30:19;1.70;;;1.60;;
20865;SDS011;10593;48.398;10.698;2023-04-25T02:32:45;2.47;;;1.97;;
20865;SDS011;10593;48.398;10.698;2023-04-25T02:35:11;1.60;;;1.50;;
20865;SDS011;10593;48.398;10.698;2023-04-25T02:37:38;1.80;;;1.70;;
20865;SDS011;10593;48.398;10.698;2023-04-25T02:40:05;1.90;;;1.80;;
20865;SDS011;10593;48.398;10.698;2023-04-25T02:42:32;2.13;;;1.93;;
20865;SDS011;10593;48.398;10.698;2023-04-25T02:44:57;4.83;;;2.43;;
20865;SDS011;10593;48.398;10.698;2023-04-25T02:47:23;1.60;;;1.53;;
20865;SDS011;10593;48.398;10.698;2023-04-25T02:49:49;1.50;;;1.43;;
20865;SDS011;10593;48.398;10.698;2023-04-25T02:52:15;2.03;;;1.90;;
20865;SDS011;10593;48.398;10.698;2023-04-25T02:54:41;1.80;;;1.70;;
20865;SDS011;10593;48.398;10.698;2023-04-25T02:57:06;1.90;;;1.80;;
20865;SDS011;10593;48.398;10.698;2023-04-25T02:59:33;2.00;;;1.90;;
20865;SDS011;10593;48.398;10.698;2023-04-25T03:01:59;1.80;;;1.70;;
20865;SDS011;10593;48.398;10.698;2023-04-25T03:04:25;1.77;;;1.67;;
20865;SDS011;10593;48.398;10.698;2023-04-25T03:06:51;2.37;;;1.90;;
20865;SDS011;10593;48.398;10.698;2023-04-25T03:09:16;2.00;;;1.80;;
20865;SDS011;10593;48.398;10.698;2023-04-25T03:11:43;2.27;;;1.93;;
20865;SDS011;10593;48.398;10.698;2023-04-25T03:14:09;2.33;;;2.23;;
20865;SDS011;10593;48.398;10.698;2023-04-25T03:16:35;1.80;;;1.70;;
20865;SDS011;10593;48.398;10.698;2023-04-25T03:19:02;3.03;;;1.73;;
20865;SDS011;10593;48.398;10.698;2023-04-25T03:21:28;2.27;;;2.03;;
20865;SDS011;10593;48.398;10.698;2023-04-25T03:23:57;2.07;;;1.97;;
20865;SDS011;10593;48.398;10.698;2023-04-25T03:26:24;2.23;;;2.13;;
20865;SDS011;10593;48.398;10.698;2023-04-25T03:28:50;2.13;;;1.90;;
20865;SDS011;10593;48.398;10.698;2023-04-25T03:31:15;1.93;;;1.83;;
20865;SDS011;10593;48.398;10.698;2023-04-25T03:33:41;2.53;;;2.33;;
20865;SDS011;10593;48.398;10.698;2023-04-25T03:36:07;3.20;;;3.00;;
20865;SDS011;10593;48.398;10.698;2023-04-25T03:38:33;3.17;;;2.90;;
20865;SDS011;10593;48.398;10.698;2023-04-25T03:40:58;3.70;;;3.10;;
20865;SDS011;10593;48.398;10.698;2023-04-25T03:43:25;2.57;;;2.47;;
20865;SDS011;10593;48.398;10.698;2023-04-25T03:45:51;2.13;;;2.03;;
20865;SDS011;10593;48.398;10.698;2023-04-25T03:48:17;2.23;;;2.10;;
20865;SDS011;10593;48.398;10.698;2023-04-25T03:50:42;2.37;;;2.27;;
20865;SDS011;10593;48.398;10.698;2023-04-25T03:53:08;2.00;;;1.90;;
20865;SDS011;10593;48.398;10.698;2023-04-25T03:55:34;2.00;;;1.90;;
20865;SDS011;10593;48.398;10.698;2023-04-25T03:57:59;1.57;;;1.47;;
20865;SDS011;10593;48.398;10.698;2023-04-25T04:00:25;2.00;;;1.90;;
20865;SDS011;10593;48.398;10.698;2023-04-25T04:02:51;1.80;;;1.70;;
20865;SDS011;10593;48.398;10.698;2023-04-25T04:05:17;1.87;;;1.77;;
20865;SDS011;10593;48.398;10.698;2023-04-25T04:07:42;1.83;;;1.73;;
20865;SDS011;10593;48.398;10.698;2023-04-25T04:10:11;2.30;;;2.10;;
20865;SDS011;10593;48.398;10.698;2023-04-25T04:12:37;1.77;;;1.67;;
20865;SDS011;10593;48.398;10.698;2023-04-25T04:15:04;2.00;;;1.90;;
20865;SDS011;10593;48.398;10.698;2023-04-25T04:17:31;1.93;;;1.83;;
20865;SDS011;10593;48.398;10.698;2023-04-25T04:19:57;1.80;;;1.70;;
20865;SDS011;10593;48.398;10.698;2023-04-25T04:22:23;1.63;;;1.53;;
20865;SDS011;10593;48.398;10.698;2023-04-25T04:24:49;2.00;;;1.70;;
20865;SDS011;10593;48.398;10.698;2023-04-25T04:27:16;3.07;;;2.03;;
20865;SDS011;10593;48.398;10.698;2023-04-25T04:29:44;2.07;;;1.87;;
20865;SDS011;10593;48.398;10.698;2023-04-25T04:32:10;1.90;;;1.80;;
20865;SDS011;10593;48.398;10.698;2023-04-25T04:34:38;2.77;;;1.80;;
20865;SDS011;10593;48.398;10.698;2023-04-25T04:37:04;2.03;;;1.87;;
20865;SDS011;10593;48.398;10.698;2023-04-25T04:39:31;1.70;;;1.60;;
20865;SDS011;10593;48.398;10.698;2023-04-25T04:41:58;2.27;;;1.93;;
20865;SDS011;10593;48.398;10.698;2023-04-25T04:44:26;1.70;;;1.60;;
20865;SDS011;10593;48.398;10.698;2023-04-25T04:46:53;1.60;;;1.50;;
20865;SDS011;10593;48.398;10.698;2023-04-25T04:49:21;1.90;;;1.70;;
20865;SDS011;10593;48.398;10.698;2023-04-25T04:51:46;2.13;;;1.80;;
20865;SDS011;10593;48.398;10.698;2023-04-25T04:54:12;1.70;;;1.60;;
20865;SDS011;10593;48.398;10.698;2023-04-25T04:56:38;2.03;;;1.80;;
20865;SDS011;10593;48.398;10.698;2023-04-25T04:59:04;1.70;;;1.60;;
20865;SDS011;10593;48.398;10.698;2023-04-25T05:01:29;1.70;;;1.60;;
20865;SDS011;10593;48.398;10.698;2023-04-25T05:03:55;1.27;;;1.27;;
20865;SDS011;10593;48.398;10.698;2023-04-25T05:06:25;1.70;;;1.60;;
20865;SDS011;10593;48.398;10.698;2023-04-25T05:08:54;1.50;;;1.40;;
20865;SDS011;10593;48.398;10.698;2023-04-25T05:11:20;1.73;;;1.63;;
20865;SDS011;10593;48.398;10.698;2023-04-25T05:13:47;1.77;;;1.67;;
20865;SDS011;10593;48.398;10.698;2023-04-25T05:16:12;1.50;;;1.40;;
20865;SDS011;10593;48.398;10.698;2023-04-25T05:18:39;1.53;;;1.37;;
20865;SDS011;10593;48.398;10.698;2023-04-25T05:21:05;1.80;;;1.70;;
20865;SDS011;10593;48.398;10.698;2023-04-25T05:23:31;1.53;;;1.43;;
20865;SDS011;10593;48.398;10.698;2023-04-25T05:25:58;2.03;;;1.40;;
20865;SDS011;10593;48.398;10.698;2023-04-25T05:28:24;1.27;;;1.27;;
20865;SDS011;10593;48.398;10.698;2023-04-25T05:30:50;1.50;;;1.40;;
20865;SDS011;10593;48.398;10.698;2023-04-25T05:33:16;2.47;;;1.80;;
20865;SDS011;10593;48.398;10.698;2023-04-25T05:35:42;1.60;;;1.50;;
20865;SDS011;10593;48.398;10.698;2023-04-25T05:38:08;2.33;;;1.97;;
20865;SDS011;10593;48.398;10.698;2023-04-25T05:40:34;1.90;;;1.80;;
20865;SDS011;10593;48.398;10.698;2023-04-25T05:43:00;2.03;;;1.90;;
20865;SDS011;10593;48.398;10.698;2023-04-25T05:45:25;1.60;;;1.50;;
20865;SDS011;10593;48.398;10.698;2023-04-25T05:47:51;1.53;;;1.43;;
20865;SDS011;10593;48.398;10.698;2023-04-25T05:50:17;1.60;;;1.50;;
20865;SDS011;10593;48.398;10.698;2023-04-25T05:52:43;1.70;;;1.60;;
20865;SDS011;10593;48.398;10.698;2023-04-25T05:55:08;1.67;;;1.57;;
20865;SDS011;10593;48.398;10.698;2023-04-25T05:57:34;1.87;;;1.50;;
20865;SDS011;10593;48.398;10.698;2023-04-25T06:00:00;2.20;;;2.00;;
20865;SDS011;10593;48.398;10.698;2023-04-25T06:02:26;2.37;;;1.90;;
20865;SDS011;10593;48.398;10.698;2023-04-25T06:04:52;1.57;;;1.47;;
20865;SDS011;10593;48.398;10.698;2023-04-25T06:07:18;2.17;;;1.90;;
20865;SDS011;10593;48.398;10.698;2023-04-25T06:09:45;2.00;;;1.83;;
20865;SDS011;10593;48.398;10.698;2023-04-25T06:12:11;1.70;;;1.60;;
20865;SDS011;10593;48.398;10.698;2023-04-25T06:14:37;1.60;;;1.50;;
20865;SDS011;10593;48.398;10.698;2023-04-25T06:17:03;2.00;;;1.80;;
20865;SDS011;10593;48.398;10.698;2023-04-25T06:19:33;2.30;;;1.90;;
20865;SDS011;10593;48.398;10.698;2023-04-25T06:22:00;1.90;;;1.73;;
20865;SDS011;10593;48.398;10.698;2023-04-25T06:24:27;1.87;;;1.77;;
20865;SDS011;10593;48.398;10.698;2023-04-25T06:26:53;1.50;;;1.40;;
20865;SDS011;10593;48.398;10.698;2023-04-25T06:29:19;1.53;;;1.43;;
20865;SDS011;10593;48.398;10.698;2023-04-25T06:31:45;1.50;;;1.40;;
20865;SDS011;10593;48.398;10.698;2023-04-25T06:34:10;1.10;;;1.10;;
20865;SDS011;10593;48.398;10.698;2023-04-25T06:36:36;1.60;;;1.37;;
20865;SDS011;10593;48.398;10.698;2023-04-25T06:39:02;1.80;;;1.70;;
20865;SDS011;10593;48.398;10.698;2023-04-25T06:41:27;1.80;;;1.70;;
20865;SDS011;10593;48.398;10.698;2023-04-25T06:43:53;2.07;;;1.87;;
20865;SDS011;10593;48.398;10.698;2023-04-25T06:46:19;1.63;;;1.53;;
20865;SDS011;10593;48.398;10.698;2023-04-25T06:48:44;1.40;;;1.20;;
20865;SDS011;10593;48.398;10.698;2023-04-25T06:51:10;1.67;;;1.37;;
20865;SDS011;10593;48.398;10.698;2023-04-25T06:53:38;1.70;;;1.40;;
20865;SDS011;10593;48.398;10.698;2023-04-25T06:56:04;1.57;;;1.47;;
20865;SDS011;10593;48.398;10.698;2023-04-25T06:58:30;2.77;;;1.60;;
20865;SDS011;10593;48.398;10.698;2023-04-25T07:00:55;1.70;;;1.47;;
20865;SDS011;10593;48.398;10.698;2023-04-25T07:03:21;2.17;;;1.30;;
20865;SDS011;10593;48.398;10.698;2023-04-25T07:05:47;2.23;;;1.53;;
20865;SDS011;10593;48.398;10.698;2023-04-25T07:08:12;1.40;;;1.30;;
20865;SDS011;10593;48.398;10.698;2023-04-25T07:10:38;1.67;;;1.40;;
20865;SDS011;10593;48.398;10.698;2023-04-25T07:13:04;1.30;;;1.20;;
20865;SDS011;10593;48.398;10.698;2023-04-25T07:15:29;2.00;;;1.50;;
20865;SDS011;10593;48.398;10.698;2023-04-25T07:17:55;1.83;;;1.50;;
20865;SDS011;10593;48.398;10.698;2023-04-25T07:20:20;1.23;;;1.10;;
20865;SDS011;10593;48.398;10.698;2023-04-25T07:22:46;2.20;;;1.50;;
20865;SDS011;10593;48.398;10.698;2023-04-25T07:25:12;1.60;;;1.30;;
20865;SDS011;10593;48.398;10.698;2023-04-25T07:27:38;1.10;;;1.10;;
20865;SDS011;10593;48.398;10.698;2023-04-25T07:30:04;2.17;;;1.63;;
20865;SDS011;10593;48.398;10.698;2023-04-25T07:32:31;2.73;;;1.53;;
20865;SDS011;10593;48.398;10.698;2023-04-25T07:34:57;1.50;;;1.40;;
20865;SDS011;10593;48.398;10.698;2023-04-25T07:37:22;1.80;;;1.57;;
20865;SDS011;10593;48.398;10.698;2023-04-25T07:39:48;1.17;;;1.10;;
20865;SDS011;10593;48.398;10.698;2023-04-25T07:42:14;1.70;;;1.23;;
20865;SDS011;10593;48.398;10.698;2023-04-25T07:44:40;1.30;;;1.20;;
20865;SDS011;10593;48.398;10.698;2023-04-25T07:47:07;1.43;;;1.33;;
20865;SDS011;10593;48.398;10.698;2023-04-25T07:49:34;1.50;;;1.40;;
20865;SDS011;10593;48.398;10.698;2023-04-25T07:52:01;3.00;;;1.53;;
20865;SDS011;10593;48.398;10.698;2023-04-25T07:54:32;1.40;;;1.30;;
20865;SDS011;10593;48.398;10.698;2023-04-25T07:56:58;1.47;;;1.27;;
20865;SDS011;10593;48.398;10.698;2023-04-25T07:59:24;2.57;;;1.60;;
20865;SDS011;10593;48.398;10.698;2023-04-25T08:01:49;1.83;;;1.73;;
20865;SDS011;10593;48.398;10.698;2023-04-25T08:04:15;2.90;;;1.90;;
20865;SDS011;10593;48.398;10.698;2023-04-25T08:06:41;2.03;;;1.53;;
20865;SDS011;10593;48.398;10.698;2023-04-25T08:09:07;2.57;;;1.77;;
20865;SDS011;10593;48.398;10.698;2023-04-25T08:11:34;1.57;;;1.33;;
20865;SDS011;10593;48.398;10.698;2023-04-25T08:14:00;1.67;;;1.20;;
20865;SDS011;10593;48.398;10.698;2023-04-25T08:16:26;1.73;;;1.47;;
20865;SDS011;10593;48.398;10.698;2023-04-25T08:18:53;1.30;;;1.20;;
20865;SDS011;10593;48.398;10.698;2023-04-25T08:21:19;2.50;;;1.83;;
20865;SDS011;10593;48.398;10.698;2023-04-25T08:23:45;1.80;;;1.60;;
20865;SDS011;10593;48.398;10.698;2023-04-25T08:26:11;2.67;;;1.40;;
20865;SDS011;10593;48.398;10.698;2023-04-25T08:28:36;1.40;;;1.27;;
20865;SDS011;10593;48.398;10.698;2023-04-25T08:31:02;1.30;;;1.23;;
20865;SDS011;10593;48.398;10.698;2023-04-25T08:33:28;1.27;;;1.10;;
20865;SDS011;10593;48.398;10.698;2023-04-25T08:35:55;2.40;;;1.30;;
20865;SDS011;10593;48.398;10.698;2023-04-25T08:38:21;1.60;;;1.50;;
20865;SDS011;10593;48.398;10.698;2023-04-25T08:40:49;1.70;;;1.50;;
20865;SDS011;10593;48.398;10.698;2023-04-25T08:43:19;2.20;;;1.30;;
20865;SDS011;10593;48.398;10.698;2023-04-25T08:45:45;1.43;;;1.23;;
20865;SDS011;10593;48.398;10.698;2023-04-25T08:48:12;2.77;;;1.67;;
20865;SDS011;10593;48.398;10.698;2023-04-25T08:50:51;1.30;;;1.20;;
20865;SDS011;10593;48.398;10.698;2023-04-25T08:53:22;1.83;;;1.40;;
20865;SDS011;10593;48.398;10.698;2023-04-25T08:55:56;2.30;;;1.60;;
20865;SDS011;10593;48.398;10.698;2023-04-25T08:58:24;1.70;;;1.60;;
20865;SDS011;10593;48.398;10.698;2023-04-25T09:00:50;1.50;;;1.40;;
20865;SDS011;10593;48.398;10.698;2023-04-25T09:03:17;1.70;;;1.60;;
20865;SDS011;10593;48.398;10.698;2023-04-25T09:05:43;2.13;;;1.77;;
20865;SDS011;10593;48.398;10.698;2023-04-25T09:08:09;3.37;;;1.90;;
20865;SDS011;10593;48.398;10.698;2023-04-25T09:10:35;1.70;;;1.60;;
20865;SDS011;10593;48.398;10.698;2023-04-25T09:15:51;1.93;;;1.70;;
20865;SDS011;10593;48.398;10.698;2023-04-25T09:18:33;1.40;;;1.30;;
20865;SDS011;10593;48.398;10.698;2023-04-25T09:21:07;1.50;;;1.40;;
20865;SDS011;10593;48.398;10.698;2023-04-25T09:23:39;1.63;;;1.53;;
20865;SDS011;10593;48.398;10.698;2023-04-25T09:26:09;1.40;;;1.30;;
20865;SDS011;10593;48.398;10.698;2023-04-25T09:28:39;1.63;;;1.53;;
20865;SDS011;10593;48.398;10.698;2023-04-25T09:31:07;1.87;;;1.20;;
20865;SDS011;10593;48.398;10.698;2023-04-25T09:33:40;2.13;;;1.20;;
20865;SDS011;10593;48.398;10.698;2023-04-25T09:36:06;1.20;;;1.10;;
20865;SDS011;10593;48.398;10.698;2023-04-25T09:38:44;1.80;;;1.27;;
20865;SDS011;10593;48.398;10.698;2023-04-25T09:41:11;1.90;;;1.37;;
20865;SDS011;10593;48.398;10.698;2023-04-25T09:43:38;2.37;;;1.20;;
20865;SDS011;10593;48.398;10.698;2023-04-25T09:46:10;1.10;;;1.10;;
20865;SDS011;10593;48.398;10.698;2023-04-25T09:48:36;1.23;;;1.13;;
20865;SDS011;10593;48.398;10.698;2023-04-25T09:53:36;0.90;;;0.90;;
20865;SDS011;10593;48.398;10.698;2023-04-25T09:56:08;0.70;;;0.70;;
20865;SDS011;10593;48.398;10.698;2023-04-25T09:58:38;0.67;;;0.63;;
20865;SDS011;10593;48.398;10.698;2023-04-25T10:01:06;1.13;;;0.70;;
20865;SDS011;10593;48.398;10.698;2023-04-25T10:03:34;0.83;;;0.70;;
20865;SDS011;10593;48.398;10.698;2023-04-25T10:06:03;0.90;;;0.90;;
20865;SDS011;10593;48.398;10.698;2023-04-25T10:08:38;1.00;;;0.90;;
20865;SDS011;10593;48.398;10.698;2023-04-25T10:11:07;1.33;;;1.20;;
20865;SDS011;10593;48.398;10.698;2023-04-25T10:13:34;0.80;;;0.80;;
20865;SDS011;10593;48.398;10.698;2023-04-25T10:16:01;1.00;;;0.90;;
20865;SDS011;10593;48.398;10.698;2023-04-25T10:18:29;1.23;;;0.77;;
20865;SDS011;10593;48.398;10.698;2023-04-25T10:21:00;0.63;;;0.60;;
20865;SDS011;10593;48.398;10.698;2023-04-25T10:23:29;2.03;;;1.13;;
20865;SDS011;10593;48.398;10.698;2023-04-25T10:25:57;1.30;;;1.20;;
20865;SDS011;10593;48.398;10.698;2023-04-25T10:28:24;1.93;;;1.33;;
20865;SDS011;10593;48.398;10.698;2023-04-25T10:33:33;1.43;;;1.33;;
20865;SDS011;10593;48.398;10.698;2023-04-25T10:36:11;1.60;;;1.50;;
20865;SDS011;10593;48.398;10.698;2023-04-25T10:38:40;1.43;;;1.33;;
20865;SDS011;10593;48.398;10.698;2023-04-25T10:41:08;1.93;;;1.20;;
20865;SDS011;10593;48.398;10.698;2023-04-25T10:43:37;1.20;;;1.10;;
20865;SDS011;10593;48.398;10.698;2023-04-25T10:46:25;1.40;;;1.30;;
20865;SDS011;10593;48.398;10.698;2023-04-25T10:48:57;1.07;;;1.07;;
20865;SDS011;10593;48.398;10.698;2023-04-25T10:51:34;1.30;;;1.20;;
20865;SDS011;10593;48.398;10.698;2023-04-25T10:54:02;2.10;;;1.90;;
20865;SDS011;10593;48.398;10.698;2023-04-25T10:59:15;2.23;;;1.70;;
20865;SDS011;10593;48.398;10.698;2023-04-25T11:04:23;3.07;;;2.10;;
20865;SDS011;10593;48.398;10.698;2023-04-25T11:07:03;1.83;;;1.70;;
20865;SDS011;10593;48.398;10.698;2023-04-25T11:09:48;2.30;;;1.80;;
20865;SDS011;10593;48.398;10.698;2023-04-25T11:12:14;1.80;;;1.70;;
20865;SDS011;10593;48.398;10.698;2023-04-25T11:14:41;1.70;;;1.60;;
20865;SDS011;10593;48.398;10.698;2023-04-25T11:17:07;1.23;;;1.17;;
20865;SDS011;10593;48.398;10.698;2023-04-25T11:19:33;1.10;;;1.10;;
20865;SDS011;10593;48.398;10.698;2023-04-25T11:22:00;1.03;;;1.00;;
20865;SDS011;10593;48.398;10.698;2023-04-25T11:24:31;1.97;;;1.33;;
20865;SDS011;10593;48.398;10.698;2023-04-25T11:27:02;0.90;;;0.80;;
20865;SDS011;10593;48.398;10.698;2023-04-25T11:29:29;0.90;;;0.90;;
20865;SDS011;10593;48.398;10.698;2023-04-25T11:31:56;1.33;;;1.10;;
20865;SDS011;10593;48.398;10.698;2023-04-25T11:34:23;1.20;;;1.20;;
20865;SDS011;10593;48.398;10.698;2023-04-25T11:36:50;2.13;;;1.47;;
20865;SDS011;10593;48.398;10.698;2023-04-25T11:39:18;1.43;;;1.33;;
20865;SDS011;10593;48.398;10.698;2023-04-25T11:41:44;1.10;;;1.10;;
20865;SDS011;10593;48.398;10.698;2023-04-25T11:44:11;1.20;;;1.20;;
20865;SDS011;10593;48.398;10.698;2023-04-25T11:46:40;1.00;;;1.00;;
20865;SDS011;10593;48.398;10.698;2023-04-25T11:49:07;1.10;;;1.00;;
20865;SDS011;10593;48.398;10.698;2023-04-25T11:54:10;1.00;;;1.00;;
20865;SDS011;10593;48.398;10.698;2023-04-25T11:56:37;1.40;;;1.40;;
20865;SDS011;10593;48.398;10.698;2023-04-25T11:59:07;1.40;;;1.30;;
20865;SDS011;10593;48.398;10.698;2023-04-25T12:01:33;1.60;;;1.50;;
20865;SDS011;10593;48.398;10.698;2023-04-25T12:04:15;1.50;;;0.80;;
20865;SDS011;10593;48.398;10.698;2023-04-25T12:06:43;0.70;;;0.70;;
20865;SDS011;10593;48.398;10.698;2023-04-25T12:09:14;0.70;;;0.70;;
20865;SDS011;10593;48.398;10.698;2023-04-25T12:11:47;0.80;;;0.80;;
20865;SDS011;10593;48.398;10.698;2023-04-25T12:14:24;1.07;;;0.90;;
20865;SDS011;10593;48.398;10.698;2023-04-25T12:16:52;0.67;;;0.67;;
20865;SDS011;10593;48.398;10.698;2023-04-25T12:19:22;0.87;;;0.87;;
20865;SDS011;10593;48.398;10.698;2023-04-25T12:21:48;0.83;;;0.60;;
20865;SDS011;10593;48.398;10.698;2023-04-25T12:24:16;0.67;;;0.67;;
20865;SDS011;10593;48.398;10.698;2023-04-25T12:27:03;0.70;;;0.70;;
20865;SDS011;10593;48.398;10.698;2023-04-25T12:29:31;0.50;;;0.50;;
20865;SDS011;10593;48.398;10.698;2023-04-25T12:31:59;0.53;;;0.53;;
20865;SDS011;10593;48.398;10.698;2023-04-25T12:34:26;0.80;;;0.40;;
20865;SDS011;10593;48.398;10.698;2023-04-25T12:36:53;0.60;;;0.60;;
20865;SDS011;10593;48.398;10.698;2023-04-25T12:39:20;0.50;;;0.50;;
20865;SDS011;10593;48.398;10.698;2023-04-25T12:41:52;0.30;;;0.30;;
20865;SDS011;10593;48.398;10.698;2023-04-25T12:44:21;0.57;;;0.50;;
20865;SDS011;10593;48.398;10.698;2023-04-25T12:46:47;0.30;;;0.30;;
20865;SDS011;10593;48.398;10.698;2023-04-25T12:49:13;0.43;;;0.43;;
20865;SDS011;10593;48.398;10.698;2023-04-25T12:51:39;0.53;;;0.53;;
20865;SDS011;10593;48.398;10.698;2023-04-25T12:54:06;0.53;;;0.53;;
20865;SDS011;10593;48.398;10.698;2023-04-25T12:56:33;0.57;;;0.57;;
20865;SDS011;10593;48.398;10.698;2023-04-25T12:59:00;1.17;;;0.50;;
20865;SDS011;10593;48.398;10.698;2023-04-25T13:01:25;0.47;;;0.47;;
20865;SDS011;10593;48.398;10.698;2023-04-25T13:03:51;0.70;;;0.70;;
20865;SDS011;10593;48.398;10.698;2023-04-25T13:06:18;0.80;;;0.80;;
20865;SDS011;10593;48.398;10.698;2023-04-25T13:08:45;0.73;;;0.73;;
20865;SDS011;10593;48.398;10.698;2023-04-25T13:11:11;1.10;;;0.90;;
20865;SDS011;10593;48.398;10.698;2023-04-25T13:13:37;1.37;;;1.27;;
20865;SDS011;10593;48.398;10.698;2023-04-25T13:16:05;0.80;;;0.80;;
20865;SDS011;10593;48.398;10.698;2023-04-25T13:18:32;0.93;;;0.93;;
20865;SDS011;10593;48.398;10.698;2023-04-25T13:20:58;1.00;;;1.00;;
20865;SDS011;10593;48.398;10.698;2023-04-25T13:23:27;1.20;;;1.10;;
20865;SDS011;10593;48.398;10.698;2023-04-25T13:25:54;1.27;;;1.17;;
20865;SDS011;10593;48.398;10.698;2023-04-25T13:28:22;0.90;;;0.90;;
20865;SDS011;10593;48.398;10.698;2023-04-25T13:30:49;1.10;;;1.10;;
20865;SDS011;10593;48.398;10.698;2023-04-25T13:33:15;1.20;;;1.20;;
20865;SDS011;10593;48.398;10.698;2023-04-25T13:35:41;1.00;;;1.00;;
20865;SDS011;10593;48.398;10.698;2023-04-25T13:38:07;1.00;;;1.00;;
20865;SDS011;10593;48.398;10.698;2023-04-25T13:40:33;1.37;;;1.27;;
20865;SDS011;10593;48.398;10.698;2023-04-25T13:42:59;1.23;;;1.00;;
20865;SDS011;10593;48.398;10.698;2023-04-25T13:45:26;0.90;;;0.90;;
20865;SDS011;10593;48.398;10.698;2023-04-25T13:47:52;1.27;;;1.17;;
20865;SDS011;10593;48.398;10.698;2023-04-25T13:50:18;1.73;;;1.30;;
20865;SDS011;10593;48.398;10.698;2023-04-25T13:52:43;1.00;;;1.00;;
20865;SDS011;10593;48.398;10.698;2023-04-25T13:55:09;0.90;;;0.90;;
20865;SDS011;10593;48.398;10.698;2023-04-25T13:57:35;1.00;;;1.00;;
20865;SDS011;10593;48.398;10.698;2023-04-25T14:00:02;1.10;;;1.10;;
20865;SDS011;10593;48.398;10.698;2023-04-25T14:02:36;1.10;;;1.10;;
20865;SDS011;10593;48.398;10.698;2023-04-25T14:05:03;1.80;;;1.70;;
20865;SDS011;10593;48.398;10.698;2023-04-25T14:07:29;1.73;;;1.63;;
20865;SDS011;10593;48.398;10.698;2023-04-25T14:09:56;1.27;;;1.20;;
20865;SDS011;10593;48.398;10.698;2023-04-25T14:12:25;2.00;;;1.33;;
20865;SDS011;10593;48.398;10.698;2023-04-25T14:14:51;1.60;;;1.50;;
20865;SDS011;10593;48.398;10.698;2023-04-25T14:17:18;1.40;;;1.40;;
20865;SDS011;10593;48.398;10.698;2023-04-25T14:19:44;1.63;;;1.50;;
20865;SDS011;10593;48.398;10.698;2023-04-25T14:22:12;1.60;;;1.50;;
20865;SDS011;10593;48.398;10.698;2023-04-25T14:24:41;1.70;;;1.60;;
20865;SDS011;10593;48.398;10.698;2023-04-25T14:27:07;1.47;;;1.37;;
20865;SDS011;10593;48.398;10.698;2023-04-25T14:29:34;1.70;;;1.60;;
20865;SDS011;10593;48.398;10.698;2023-04-25T14:32:00;1.67;;;1.57;;
20865;SDS011;10593;48.398;10.698;2023-04-25T14:34:26;1.83;;;1.73;;
20865;SDS011;10593;48.398;10.698;2023-04-25T14:36:52;1.80;;;1.70;;
20865;SDS011;10593;48.398;10.698;2023-04-25T14:39:18;1.63;;;1.53;;
20865;SDS011;10593;48.398;10.698;2023-04-25T14:41:44;2.10;;;1.90;;
20865;SDS011;10593;48.398;10.698;2023-04-25T14:44:10;2.47;;;2.23;;
20865;SDS011;10593;48.398;10.698;2023-04-25T14:46:36;3.40;;;3.10;;
20865;SDS011;10593;48.398;10.698;2023-04-25T14:49:02;3.43;;;3.13;;